Close

Questo sito utlizza cookie. Può leggere come li usiamo nella nostra Privacy Policy.


Warning: file(http://tgftp.nws.noaa.gov/data/observations/metar/stations/LIPQ.TXT): failed to open stream: HTTP request failed! in /web/htdocs/www.ronchitower.it/home/includes/scelta-header.php on line 5

Warning: implode(): Invalid arguments passed in /web/htdocs/www.ronchitower.it/home/includes/scelta-header.php on line 5
Ronchi Tower
Ronchi Tower

From Facebook

METAR & TAF

2020/02/26 18:50 LIPQ 261850Z 05003KT 010V080 9999 SCT040 BKN070 07/01 Q1000
2020/02/26 18:21 TAF LIPQ 261700Z 2618/2718 08010KT 9999 SCT040 BKN050 BECMG 2618/2620 VRB05KT BECMG 2710/2712 19010KT
2020/02/26 18:50 LIPZ 261850Z 07011KT 9999 FEW030 SCT060 09/02 Q1000 NOSIG
2020/02/26 18:21 TAF LIPZ 261700Z 2618/2724 08010KT 9999 SCT040 BECMG 2620/2622 26008KT BECMG 2708/2710 19012KT
2020/02/26 18:50 LIPH 261850Z 08004KT 050V120 CAVOK 09/01 Q1000
2020/02/26 18:21 TAF LIPH 261700Z 2618/2718 08010KT 9999 SCT030 BECMG 2620/2622 25008KT
2020/02/26 18:50 LIRF 261850Z 32006KT 280V360 9999 FEW020CB SCT050 08/02 Q1004 RERA NOSIG
2020/02/26 18:25 TAF LIRF 261700Z 2618/2724 30016KT 9999 SCT025 SCT040 TEMPO 2618/2622 31020G30KT BECMG 2704/2706 02010KT BECMG 2710/2712 26013KT TEMPO 2718/2724 27018G28KT
2020/02/26 18:50 LIML 261850Z 32015G28KT 280V350 CAVOK 09/M08 Q1005 WS R36 NOSIG
2020/02/26 18:21 TAF LIML 261700Z 2618/2718 30012KT CAVOK BECMG 2700/2702 VRB05KT
2020/02/26 18:50 EDDM 261850Z 27008KT 9999 -SHSN FEW020 BKN035 01/M01 Q1006 NOSIG
2020/02/26 18:38 TAF EDDM 261700Z 2618/2724 25012KT 9999 SCT025 PROB40 TEMPO 2618/2705 27015G25KT 2000 SHSN SCT008 BKN015CB TEMPO 2708/2710 24015G25KT BECMG 2712/2715 16010KT BECMG 2715/2717 4000 SNRA BKN010 TEMPO 2717/2720 0800 SN BKN006 BECMG 2719/2721 24025G40KT NSW BKN015 TEMPO 2721/2724 27030G50KT 2000 SHSNGS SCT008 BKN015CB
2020/02/26 18:50 EGSS 261850Z AUTO 25005KT 9999 NCD 04/M03 Q1007
2020/02/26 18:09 TAF EGSS 261701Z 2618/2724 28012KT 9999 SCT030 BECMG 2621/2624 21006KT BECMG 2703/2706 6000 -RA BKN008 PROB30 TEMPO 2703/2706 4000 -RASN BKN004 BECMG 2706/2709 2000 RASN BR FEW001 BKN004 PROB40 TEMPO 2706/2712 0800 SN BKN001 BECMG 2709/2712 30014KT BECMG 2712/2714 9999 NSW FEW030 TEMPO 2714/2718 31018G28KT BECMG 2721/2724 24004KT
2020/02/26 18:50 EDDF 261850Z 24011KT 220V280 9999 FEW020 BKN038 05/M01 Q1006 NOSIG
2020/02/26 18:37 TAF EDDF 261700Z 2618/2724 23008KT 9999 BKN025 PROB30 TEMPO 2618/2704 4000 -SHRASN BKN020TCU BECMG 2704/2706 SCT040 BECMG 2709/2711 21013KT BKN020 BECMG 2714/2716 15009KT 4000 -RADZ OVC006 BECMG 2716/2718 09008KT 1400 SN OVC003 BECMG 2718/2720 30006KT 4000 -SN OVC006 BECMG 2720/2722 30013KT 9999 BKN015

FlightRadar24

Radar Meteo

Traffic data

Agosto 2018

Passeggeri: 63892-12,9% (rank: 23)
Nazionali 34490 -19,8%
Internazionali 29193 -3,0%

Movimenti: 1307+11,7% (rank: 24)
Tot commerciale 556 -7,2%
Aviazione generale 751 +31,5%

Cargo (tons): 20,6+62,5% (rank: 21)

Gennaio - Agosto 2018

Passeggeri: 507438-3,5% (rank: 23)
Nazionali 322655 -4,9%
Internazionali 182927 -0,7%

Movimenti: 10366-4,25 (rank: 22)
Tot commerciale 5328 -11,0%
Aviazione generale 5038 +4,2%

Cargo (tons): 299,2+61,9% (rank: 20)

Photo

Eurocopter AS-350 Ecureuil
Eurocopter AS-350 Ecureuil
Distinct views: 10
Douglas DC-6B
Douglas DC-6B
Distinct views: 68
Douglas DC-6B
Douglas DC-6B
Distinct views: 194
Apron
Apron
Total views: 1963